Weather at Bristol Airport

Public forecast

Using degrees Celsius for public forecast. Weather courtesy of forecast.io.

Current aviation weather report (METAR) for Bristol Airport

Retrieved 2021/07/24 19:20 UTC (18 minutes ago):

EGGD 241920Z AUTO 01009KT 9999 SCT025/// BKN030/// BKN044/// //////CB 18/16 Q1008

Aviation forecast (TAF) for Bristol Airport

Retrieved 2021/07/24 18:00 UTC (2 hours ago):

TAF EGGD 241700Z 2418/2518 03008KT 9999 FEW012 BKN030 TEMPO 2418/2503 6000 SHRA PROB30 TEMPO 2418/2423 2000 +TSRAGR BKN009 BKN030CB BECMG 2423/2502 BKN008 PROB40 TEMPO 2503/2509 BKN004 BECMG 2509/2512 SCT015 TEMPO 2509/2515 7000 SHRA